sensor_id;sensor_type;location;lat;lon;timestamp;P1;durP1;ratioP1;P2;durP2;ratioP2
4198;SDS011;2113;50.946;14.610;2023-09-19T00:01:49;3.83;;;1.70;;
4198;SDS011;2113;50.946;14.610;2023-09-19T00:04:19;4.13;;;1.85;;
4198;SDS011;2113;50.946;14.610;2023-09-19T00:06:55;6.53;;;2.75;;
4198;SDS011;2113;50.946;14.610;2023-09-19T00:09:23;4.35;;;2.10;;
4198;SDS011;2113;50.946;14.610;2023-09-19T00:11:54;4.13;;;1.80;;
4198;SDS011;2113;50.946;14.610;2023-09-19T00:14:24;6.18;;;3.10;;
4198;SDS011;2113;50.946;14.610;2023-09-19T00:16:54;4.05;;;2.33;;
4198;SDS011;2113;50.946;14.610;2023-09-19T00:19:22;5.80;;;2.20;;
4198;SDS011;2113;50.946;14.610;2023-09-19T00:21:51;7.68;;;2.75;;
4198;SDS011;2113;50.946;14.610;2023-09-19T00:24:20;4.57;;;2.13;;
4198;SDS011;2113;50.946;14.610;2023-09-19T00:26:50;5.60;;;3.45;;
4198;SDS011;2113;50.946;14.610;2023-09-19T00:29:18;6.35;;;3.30;;
4198;SDS011;2113;50.946;14.610;2023-09-19T00:31:46;5.13;;;3.40;;
4198;SDS011;2113;50.946;14.610;2023-09-19T00:34:16;3.83;;;2.45;;
4198;SDS011;2113;50.946;14.610;2023-09-19T00:36:45;4.63;;;2.65;;
4198;SDS011;2113;50.946;14.610;2023-09-19T00:39:13;4.63;;;2.22;;
4198;SDS011;2113;50.946;14.610;2023-09-19T00:41:42;7.18;;;3.28;;
4198;SDS011;2113;50.946;14.610;2023-09-19T00:44:11;8.02;;;3.63;;
4198;SDS011;2113;50.946;14.610;2023-09-19T00:46:39;4.30;;;2.58;;
4198;SDS011;2113;50.946;14.610;2023-09-19T00:49:08;5.15;;;3.00;;
4198;SDS011;2113;50.946;14.610;2023-09-19T00:51:39;6.43;;;3.10;;
4198;SDS011;2113;50.946;14.610;2023-09-19T00:54:12;5.88;;;3.05;;
4198;SDS011;2113;50.946;14.610;2023-09-19T00:56:45;5.20;;;3.10;;
4198;SDS011;2113;50.946;14.610;2023-09-19T00:59:15;4.63;;;3.10;;
4198;SDS011;2113;50.946;14.610;2023-09-19T01:01:44;4.53;;;2.70;;
4198;SDS011;2113;50.946;14.610;2023-09-19T01:04:12;9.88;;;3.83;;
4198;SDS011;2113;50.946;14.610;2023-09-19T01:06:42;5.22;;;3.13;;
4198;SDS011;2113;50.946;14.610;2023-09-19T01:09:12;8.98;;;3.53;;
4198;SDS011;2113;50.946;14.610;2023-09-19T01:11:40;4.18;;;2.78;;
4198;SDS011;2113;50.946;14.610;2023-09-19T01:14:15;7.20;;;3.60;;
4198;SDS011;2113;50.946;14.610;2023-09-19T01:16:53;7.50;;;3.50;;
4198;SDS011;2113;50.946;14.610;2023-09-19T01:19:42;9.02;;;3.25;;
4198;SDS011;2113;50.946;14.610;2023-09-19T01:22:36;4.68;;;3.25;;
4198;SDS011;2113;50.946;14.610;2023-09-19T01:25:19;4.38;;;2.92;;
4198;SDS011;2113;50.946;14.610;2023-09-19T01:28:06;5.15;;;2.97;;
4198;SDS011;2113;50.946;14.610;2023-09-19T01:30:51;5.10;;;3.35;;
4198;SDS011;2113;50.946;14.610;2023-09-19T01:33:26;7.57;;;3.80;;
4198;SDS011;2113;50.946;14.610;2023-09-19T01:36:01;7.40;;;4.30;;
4198;SDS011;2113;50.946;14.610;2023-09-19T01:38:32;6.63;;;3.90;;
4198;SDS011;2113;50.946;14.610;2023-09-19T01:41:04;6.43;;;4.22;;
4198;SDS011;2113;50.946;14.610;2023-09-19T01:43:41;5.78;;;4.25;;
4198;SDS011;2113;50.946;14.610;2023-09-19T01:46:13;7.22;;;4.10;;
4198;SDS011;2113;50.946;14.610;2023-09-19T01:48:49;9.65;;;4.30;;
4198;SDS011;2113;50.946;14.610;2023-09-19T01:51:32;5.45;;;3.90;;
4198;SDS011;2113;50.946;14.610;2023-09-19T01:54:03;10.13;;;4.40;;
4198;SDS011;2113;50.946;14.610;2023-09-19T01:56:38;5.82;;;4.20;;
4198;SDS011;2113;50.946;14.610;2023-09-19T01:59:13;5.47;;;3.63;;
4198;SDS011;2113;50.946;14.610;2023-09-19T02:01:45;6.55;;;4.10;;
4198;SDS011;2113;50.946;14.610;2023-09-19T02:04:14;7.43;;;4.10;;
4198;SDS011;2113;50.946;14.610;2023-09-19T02:06:43;6.82;;;4.50;;
4198;SDS011;2113;50.946;14.610;2023-09-19T02:09:14;7.32;;;4.20;;
4198;SDS011;2113;50.946;14.610;2023-09-19T02:11:44;7.93;;;3.70;;
4198;SDS011;2113;50.946;14.610;2023-09-19T02:14:13;6.05;;;3.90;;
4198;SDS011;2113;50.946;14.610;2023-09-19T02:16:42;5.65;;;4.10;;
4198;SDS011;2113;50.946;14.610;2023-09-19T02:19:13;5.82;;;3.90;;
4198;SDS011;2113;50.946;14.610;2023-09-19T02:21:41;6.10;;;3.95;;
4198;SDS011;2113;50.946;14.610;2023-09-19T02:24:10;5.90;;;3.45;;
4198;SDS011;2113;50.946;14.610;2023-09-19T02:26:39;7.95;;;4.40;;
4198;SDS011;2113;50.946;14.610;2023-09-19T02:29:08;8.45;;;5.32;;
4198;SDS011;2113;50.946;14.610;2023-09-19T02:31:39;6.18;;;3.92;;
4198;SDS011;2113;50.946;14.610;2023-09-19T02:34:08;6.00;;;3.72;;
4198;SDS011;2113;50.946;14.610;2023-09-19T02:36:38;8.15;;;3.83;;
4198;SDS011;2113;50.946;14.610;2023-09-19T02:39:06;8.40;;;4.80;;
4198;SDS011;2113;50.946;14.610;2023-09-19T02:41:35;5.97;;;4.10;;
4198;SDS011;2113;50.946;14.610;2023-09-19T02:44:03;7.85;;;4.45;;
4198;SDS011;2113;50.946;14.610;2023-09-19T02:46:34;7.25;;;5.20;;
4198;SDS011;2113;50.946;14.610;2023-09-19T02:49:04;9.18;;;5.65;;
4198;SDS011;2113;50.946;14.610;2023-09-19T02:51:33;7.18;;;4.65;;
4198;SDS011;2113;50.946;14.610;2023-09-19T02:54:03;7.60;;;5.50;;
4198;SDS011;2113;50.946;14.610;2023-09-19T02:56:31;7.60;;;5.65;;
4198;SDS011;2113;50.946;14.610;2023-09-19T02:58:59;7.55;;;5.93;;
4198;SDS011;2113;50.946;14.610;2023-09-19T03:01:28;7.90;;;6.40;;
4198;SDS011;2113;50.946;14.610;2023-09-19T03:03:57;9.05;;;5.57;;
4198;SDS011;2113;50.946;14.610;2023-09-19T03:06:26;8.77;;;5.80;;
4198;SDS011;2113;50.946;14.610;2023-09-19T03:08:58;8.80;;;6.82;;
4198;SDS011;2113;50.946;14.610;2023-09-19T03:11:28;10.05;;;6.78;;
4198;SDS011;2113;50.946;14.610;2023-09-19T03:13:57;9.80;;;7.53;;
4198;SDS011;2113;50.946;14.610;2023-09-19T03:16:26;10.60;;;6.75;;
4198;SDS011;2113;50.946;14.610;2023-09-19T03:18:57;12.63;;;7.70;;
4198;SDS011;2113;50.946;14.610;2023-09-19T03:21:28;9.90;;;6.70;;
4198;SDS011;2113;50.946;14.610;2023-09-19T03:23:57;11.43;;;7.30;;
4198;SDS011;2113;50.946;14.610;2023-09-19T03:26:26;10.40;;;7.82;;
4198;SDS011;2113;50.946;14.610;2023-09-19T03:28:56;9.90;;;6.80;;
4198;SDS011;2113;50.946;14.610;2023-09-19T03:31:24;11.55;;;6.60;;
4198;SDS011;2113;50.946;14.610;2023-09-19T03:33:53;10.57;;;7.03;;
4198;SDS011;2113;50.946;14.610;2023-09-19T03:36:21;12.90;;;7.38;;
4198;SDS011;2113;50.946;14.610;2023-09-19T03:38:50;9.63;;;7.00;;
4198;SDS011;2113;50.946;14.610;2023-09-19T03:41:18;10.00;;;7.10;;
4198;SDS011;2113;50.946;14.610;2023-09-19T03:43:48;11.75;;;6.68;;
4198;SDS011;2113;50.946;14.610;2023-09-19T03:46:17;10.40;;;7.60;;
4198;SDS011;2113;50.946;14.610;2023-09-19T03:48:46;12.40;;;7.32;;
4198;SDS011;2113;50.946;14.610;2023-09-19T03:51:14;12.27;;;8.00;;
4198;SDS011;2113;50.946;14.610;2023-09-19T03:53:42;13.10;;;9.15;;
4198;SDS011;2113;50.946;14.610;2023-09-19T03:56:11;10.98;;;8.38;;
4198;SDS011;2113;50.946;14.610;2023-09-19T03:58:39;13.13;;;9.48;;
4198;SDS011;2113;50.946;14.610;2023-09-19T04:01:10;14.70;;;9.55;;
4198;SDS011;2113;50.946;14.610;2023-09-19T04:03:40;12.60;;;8.80;;
4198;SDS011;2113;50.946;14.610;2023-09-19T04:06:15;12.68;;;8.90;;
4198;SDS011;2113;50.946;14.610;2023-09-19T04:08:43;16.17;;;9.63;;
4198;SDS011;2113;50.946;14.610;2023-09-19T04:11:13;13.20;;;9.32;;
4198;SDS011;2113;50.946;14.610;2023-09-19T04:13:41;13.55;;;9.27;;
4198;SDS011;2113;50.946;14.610;2023-09-19T04:16:11;14.35;;;9.05;;
4198;SDS011;2113;50.946;14.610;2023-09-19T04:18:40;13.93;;;9.20;;
4198;SDS011;2113;50.946;14.610;2023-09-19T04:21:08;11.50;;;9.50;;
4198;SDS011;2113;50.946;14.610;2023-09-19T04:23:37;12.15;;;8.90;;
4198;SDS011;2113;50.946;14.610;2023-09-19T04:26:05;16.77;;;8.88;;
4198;SDS011;2113;50.946;14.610;2023-09-19T04:28:34;10.30;;;7.30;;
4198;SDS011;2113;50.946;14.610;2023-09-19T04:31:05;11.68;;;8.98;;
4198;SDS011;2113;50.946;14.610;2023-09-19T04:33:36;11.63;;;7.50;;
4198;SDS011;2113;50.946;14.610;2023-09-19T04:36:05;12.82;;;7.63;;
4198;SDS011;2113;50.946;14.610;2023-09-19T04:38:54;11.10;;;8.52;;
4198;SDS011;2113;50.946;14.610;2023-09-19T04:41:22;12.05;;;8.55;;
4198;SDS011;2113;50.946;14.610;2023-09-19T04:43:51;13.88;;;9.13;;
4198;SDS011;2113;50.946;14.610;2023-09-19T04:46:19;12.65;;;8.25;;
4198;SDS011;2113;50.946;14.610;2023-09-19T04:48:50;13.30;;;8.48;;
4198;SDS011;2113;50.946;14.610;2023-09-19T04:51:18;10.82;;;8.35;;
4198;SDS011;2113;50.946;14.610;2023-09-19T04:53:47;13.00;;;9.00;;
4198;SDS011;2113;50.946;14.610;2023-09-19T04:56:16;12.82;;;7.90;;
4198;SDS011;2113;50.946;14.610;2023-09-19T04:58:44;15.88;;;9.10;;
4198;SDS011;2113;50.946;14.610;2023-09-19T05:01:12;15.82;;;8.90;;
4198;SDS011;2113;50.946;14.610;2023-09-19T05:03:42;14.93;;;8.13;;
4198;SDS011;2113;50.946;14.610;2023-09-19T05:06:12;11.68;;;8.38;;
4198;SDS011;2113;50.946;14.610;2023-09-19T05:08:41;10.38;;;7.18;;
4198;SDS011;2113;50.946;14.610;2023-09-19T05:11:09;13.18;;;9.15;;
4198;SDS011;2113;50.946;14.610;2023-09-19T05:13:37;11.15;;;7.28;;
4198;SDS011;2113;50.946;14.610;2023-09-19T05:16:06;11.88;;;8.05;;
4198;SDS011;2113;50.946;14.610;2023-09-19T05:18:37;11.60;;;6.82;;
4198;SDS011;2113;50.946;14.610;2023-09-19T05:21:05;14.55;;;7.32;;
4198;SDS011;2113;50.946;14.610;2023-09-19T05:23:35;12.07;;;7.25;;
4198;SDS011;2113;50.946;14.610;2023-09-19T05:26:04;11.05;;;7.07;;
4198;SDS011;2113;50.946;14.610;2023-09-19T05:28:32;8.77;;;6.95;;
4198;SDS011;2113;50.946;14.610;2023-09-19T05:31:01;11.15;;;7.13;;
4198;SDS011;2113;50.946;14.610;2023-09-19T05:33:30;9.60;;;6.32;;
4198;SDS011;2113;50.946;14.610;2023-09-19T05:36:00;8.75;;;5.70;;
4198;SDS011;2113;50.946;14.610;2023-09-19T05:38:28;11.20;;;6.63;;
4198;SDS011;2113;50.946;14.610;2023-09-19T05:40:58;9.82;;;5.70;;
4198;SDS011;2113;50.946;14.610;2023-09-19T05:43:28;13.07;;;5.25;;
4198;SDS011;2113;50.946;14.610;2023-09-19T05:45:59;10.30;;;5.65;;
4198;SDS011;2113;50.946;14.610;2023-09-19T05:48:27;8.65;;;5.60;;
4198;SDS011;2113;50.946;14.610;2023-09-19T05:50:56;7.22;;;5.07;;
4198;SDS011;2113;50.946;14.610;2023-09-19T05:53:24;6.45;;;4.80;;
4198;SDS011;2113;50.946;14.610;2023-09-19T05:55:53;8.90;;;6.05;;
4198;SDS011;2113;50.946;14.610;2023-09-19T05:58:24;8.07;;;5.10;;
4198;SDS011;2113;50.946;14.610;2023-09-19T06:00:52;7.50;;;5.50;;
4198;SDS011;2113;50.946;14.610;2023-09-19T06:03:22;8.63;;;6.40;;
4198;SDS011;2113;50.946;14.610;2023-09-19T06:05:50;7.55;;;5.25;;
4198;SDS011;2113;50.946;14.610;2023-09-19T06:08:19;8.93;;;5.65;;
4198;SDS011;2113;50.946;14.610;2023-09-19T06:10:48;8.52;;;6.15;;
4198;SDS011;2113;50.946;14.610;2023-09-19T06:13:19;6.47;;;4.78;;
4198;SDS011;2113;50.946;14.610;2023-09-19T06:15:49;9.30;;;6.03;;
4198;SDS011;2113;50.946;14.610;2023-09-19T06:18:17;7.95;;;6.38;;
4198;SDS011;2113;50.946;14.610;2023-09-19T06:20:46;11.88;;;5.35;;
4198;SDS011;2113;50.946;14.610;2023-09-19T06:23:17;11.95;;;5.88;;
4198;SDS011;2113;50.946;14.610;2023-09-19T06:25:47;9.07;;;5.78;;
4198;SDS011;2113;50.946;14.610;2023-09-19T06:28:16;7.78;;;5.45;;
4198;SDS011;2113;50.946;14.610;2023-09-19T06:30:52;9.18;;;6.05;;
4198;SDS011;2113;50.946;14.610;2023-09-19T06:33:20;7.53;;;5.68;;
4198;SDS011;2113;50.946;14.610;2023-09-19T06:35:49;6.28;;;4.60;;
4198;SDS011;2113;50.946;14.610;2023-09-19T06:38:20;11.10;;;5.80;;
4198;SDS011;2113;50.946;14.610;2023-09-19T06:40:48;8.55;;;5.22;;
4198;SDS011;2113;50.946;14.610;2023-09-19T06:43:17;7.03;;;4.80;;
4198;SDS011;2113;50.946;14.610;2023-09-19T06:45:46;6.50;;;4.40;;
4198;SDS011;2113;50.946;14.610;2023-09-19T06:48:15;7.95;;;4.85;;
4198;SDS011;2113;50.946;14.610;2023-09-19T06:50:44;5.80;;;4.40;;
4198;SDS011;2113;50.946;14.610;2023-09-19T06:53:14;6.20;;;4.10;;
4198;SDS011;2113;50.946;14.610;2023-09-19T06:55:43;7.93;;;4.38;;
4198;SDS011;2113;50.946;14.610;2023-09-19T06:58:12;5.10;;;3.90;;
4198;SDS011;2113;50.946;14.610;2023-09-19T07:00:40;5.63;;;3.92;;
4198;SDS011;2113;50.946;14.610;2023-09-19T07:03:08;8.25;;;4.00;;
4198;SDS011;2113;50.946;14.610;2023-09-19T07:05:40;8.57;;;3.55;;
4198;SDS011;2113;50.946;14.610;2023-09-19T07:08:09;6.00;;;4.50;;
4198;SDS011;2113;50.946;14.610;2023-09-19T07:10:39;9.10;;;3.78;;
4198;SDS011;2113;50.946;14.610;2023-09-19T07:13:09;5.18;;;3.47;;
4198;SDS011;2113;50.946;14.610;2023-09-19T07:15:38;6.22;;;3.15;;
4198;SDS011;2113;50.946;14.610;2023-09-19T07:18:13;4.80;;;3.05;;
4198;SDS011;2113;50.946;14.610;2023-09-19T07:20:45;7.93;;;3.30;;
4198;SDS011;2113;50.946;14.610;2023-09-19T07:23:16;5.13;;;3.10;;
4198;SDS011;2113;50.946;14.610;2023-09-19T07:25:47;4.63;;;3.10;;
4198;SDS011;2113;50.946;14.610;2023-09-19T07:28:16;6.47;;;2.50;;
4198;SDS011;2113;50.946;14.610;2023-09-19T07:30:45;6.60;;;2.85;;
4198;SDS011;2113;50.946;14.610;2023-09-19T07:33:13;7.22;;;3.05;;
4198;SDS011;2113;50.946;14.610;2023-09-19T07:35:46;5.78;;;3.30;;
4198;SDS011;2113;50.946;14.610;2023-09-19T07:38:14;5.03;;;3.17;;
4198;SDS011;2113;50.946;14.610;2023-09-19T07:40:44;5.63;;;3.33;;
4198;SDS011;2113;50.946;14.610;2023-09-19T07:43:13;8.23;;;2.80;;
4198;SDS011;2113;50.946;14.610;2023-09-19T07:45:41;4.40;;;2.53;;
4198;SDS011;2113;50.946;14.610;2023-09-19T07:48:10;3.47;;;2.15;;
4198;SDS011;2113;50.946;14.610;2023-09-19T07:50:41;3.88;;;2.00;;
4198;SDS011;2113;50.946;14.610;2023-09-19T07:53:13;5.57;;;2.20;;
4198;SDS011;2113;50.946;14.610;2023-09-19T07:55:42;10.40;;;4.35;;
4198;SDS011;2113;50.946;14.610;2023-09-19T07:58:15;4.75;;;2.13;;
4198;SDS011;2113;50.946;14.610;2023-09-19T08:00:43;4.28;;;2.65;;
4198;SDS011;2113;50.946;14.610;2023-09-19T08:03:13;4.80;;;2.03;;
4198;SDS011;2113;50.946;14.610;2023-09-19T08:05:43;3.15;;;1.65;;
4198;SDS011;2113;50.946;14.610;2023-09-19T08:08:14;3.63;;;2.22;;
4198;SDS011;2113;50.946;14.610;2023-09-19T08:10:42;3.78;;;2.03;;
4198;SDS011;2113;50.946;14.610;2023-09-19T08:13:13;3.25;;;1.70;;
4198;SDS011;2113;50.946;14.610;2023-09-19T08:15:44;4.45;;;1.95;;
4198;SDS011;2113;50.946;14.610;2023-09-19T08:18:13;4.22;;;1.65;;
4198;SDS011;2113;50.946;14.610;2023-09-19T08:20:42;3.42;;;2.00;;
4198;SDS011;2113;50.946;14.610;2023-09-19T08:23:14;3.60;;;1.90;;
4198;SDS011;2113;50.946;14.610;2023-09-19T08:25:44;3.85;;;1.70;;
4198;SDS011;2113;50.946;14.610;2023-09-19T08:28:12;5.15;;;2.15;;
4198;SDS011;2113;50.946;14.610;2023-09-19T08:30:45;4.20;;;1.95;;
4198;SDS011;2113;50.946;14.610;2023-09-19T08:33:14;3.42;;;1.70;;
4198;SDS011;2113;50.946;14.610;2023-09-19T08:35:43;3.15;;;1.85;;
4198;SDS011;2113;50.946;14.610;2023-09-19T08:38:12;3.97;;;1.45;;
4198;SDS011;2113;50.946;14.610;2023-09-19T08:40:42;2.90;;;1.20;;
4198;SDS011;2113;50.946;14.610;2023-09-19T08:43:10;3.10;;;1.45;;
4198;SDS011;2113;50.946;14.610;2023-09-19T08:45:39;3.28;;;1.63;;
4198;SDS011;2113;50.946;14.610;2023-09-19T08:48:16;4.40;;;2.05;;
4198;SDS011;2113;50.946;14.610;2023-09-19T08:50:49;5.60;;;1.50;;
4198;SDS011;2113;50.946;14.610;2023-09-19T08:53:21;3.67;;;1.52;;
4198;SDS011;2113;50.946;14.610;2023-09-19T08:56:00;4.85;;;1.30;;
4198;SDS011;2113;50.946;14.610;2023-09-19T08:58:31;3.63;;;1.30;;
4198;SDS011;2113;50.946;14.610;2023-09-19T09:01:08;4.60;;;1.13;;
4198;SDS011;2113;50.946;14.610;2023-09-19T09:03:38;3.28;;;1.48;;
4198;SDS011;2113;50.946;14.610;2023-09-19T09:06:15;2.85;;;1.00;;
4198;SDS011;2113;50.946;14.610;2023-09-19T09:08:45;4.20;;;1.02;;
4198;SDS011;2113;50.946;14.610;2023-09-19T09:11:16;2.70;;;1.15;;
4198;SDS011;2113;50.946;14.610;2023-09-19T09:13:44;2.53;;;1.00;;
4198;SDS011;2113;50.946;14.610;2023-09-19T09:16:13;5.63;;;1.27;;
4198;SDS011;2113;50.946;14.610;2023-09-19T09:18:44;3.20;;;1.40;;
4198;SDS011;2113;50.946;14.610;2023-09-19T09:21:20;5.28;;;2.70;;
4198;SDS011;2113;50.946;14.610;2023-09-19T09:23:49;4.38;;;1.45;;
4198;SDS011;2113;50.946;14.610;2023-09-19T09:26:22;2.55;;;1.20;;
4198;SDS011;2113;50.946;14.610;2023-09-19T09:29:09;4.38;;;1.50;;
4198;SDS011;2113;50.946;14.610;2023-09-19T09:31:38;3.97;;;1.42;;
4198;SDS011;2113;50.946;14.610;2023-09-19T09:34:09;3.22;;;1.60;;
4198;SDS011;2113;50.946;14.610;2023-09-19T09:36:40;2.20;;;1.13;;
4198;SDS011;2113;50.946;14.610;2023-09-19T09:39:09;5.82;;;1.60;;
4198;SDS011;2113;50.946;14.610;2023-09-19T09:41:47;3.28;;;1.20;;
4198;SDS011;2113;50.946;14.610;2023-09-19T09:44:16;6.47;;;1.45;;
4198;SDS011;2113;50.946;14.610;2023-09-19T09:46:47;2.50;;;1.10;;
4198;SDS011;2113;50.946;14.610;2023-09-19T09:49:43;3.38;;;1.20;;
4198;SDS011;2113;50.946;14.610;2023-09-19T09:52:21;2.92;;;1.50;;
4198;SDS011;2113;50.946;14.610;2023-09-19T09:55:01;3.10;;;1.25;;
4198;SDS011;2113;50.946;14.610;2023-09-19T09:57:34;3.50;;;1.52;;
4198;SDS011;2113;50.946;14.610;2023-09-19T10:00:03;2.20;;;1.10;;
4198;SDS011;2113;50.946;14.610;2023-09-19T10:02:47;3.10;;;1.73;;
4198;SDS011;2113;50.946;14.610;2023-09-19T10:05:16;3.28;;;1.35;;
4198;SDS011;2113;50.946;14.610;2023-09-19T10:07:55;2.20;;;1.00;;
4198;SDS011;2113;50.946;14.610;2023-09-19T10:10:31;3.13;;;1.27;;
4198;SDS011;2113;50.946;14.610;2023-09-19T10:13:13;6.80;;;1.67;;
4198;SDS011;2113;50.946;14.610;2023-09-19T10:15:47;3.78;;;1.60;;
4198;SDS011;2113;50.946;14.610;2023-09-19T10:18:19;4.40;;;1.70;;
4198;SDS011;2113;50.946;14.610;2023-09-19T10:20:48;5.50;;;1.30;;
4198;SDS011;2113;50.946;14.610;2023-09-19T10:23:17;3.92;;;1.48;;
4198;SDS011;2113;50.946;14.610;2023-09-19T10:25:49;3.80;;;1.20;;
4198;SDS011;2113;50.946;14.610;2023-09-19T10:28:20;2.45;;;1.25;;
4198;SDS011;2113;50.946;14.610;2023-09-19T10:30:50;3.00;;;1.30;;
4198;SDS011;2113;50.946;14.610;2023-09-19T10:33:21;3.45;;;1.40;;
4198;SDS011;2113;50.946;14.610;2023-09-19T10:35:53;3.30;;;1.70;;
4198;SDS011;2113;50.946;14.610;2023-09-19T10:38:23;4.57;;;1.20;;
4198;SDS011;2113;50.946;14.610;2023-09-19T10:40:53;4.38;;;1.40;;
4198;SDS011;2113;50.946;14.610;2023-09-19T10:43:30;3.95;;;1.27;;
4198;SDS011;2113;50.946;14.610;2023-09-19T10:46:03;2.78;;;1.50;;
4198;SDS011;2113;50.946;14.610;2023-09-19T10:48:37;4.05;;;1.25;;
4198;SDS011;2113;50.946;14.610;2023-09-19T10:51:11;4.22;;;1.35;;
4198;SDS011;2113;50.946;14.610;2023-09-19T10:53:45;4.05;;;2.00;;
4198;SDS011;2113;50.946;14.610;2023-09-19T10:56:18;3.17;;;1.20;;
4198;SDS011;2113;50.946;14.610;2023-09-19T10:58:59;2.20;;;0.90;;
4198;SDS011;2113;50.946;14.610;2023-09-19T11:01:41;6.72;;;1.30;;
4198;SDS011;2113;50.946;14.610;2023-09-19T11:04:22;3.20;;;1.25;;
4198;SDS011;2113;50.946;14.610;2023-09-19T11:07:04;2.30;;;1.20;;
4198;SDS011;2113;50.946;14.610;2023-09-19T11:09:43;2.63;;;1.52;;
4198;SDS011;2113;50.946;14.610;2023-09-19T11:21:41;3.78;;;1.30;;
4198;SDS011;2113;50.946;14.610;2023-09-19T11:24:28;3.08;;;1.25;;
4198;SDS011;2113;50.946;14.610;2023-09-19T11:27:13;2.45;;;1.40;;
4198;SDS011;2113;50.946;14.610;2023-09-19T11:29:46;1.85;;;0.85;;
4198;SDS011;2113;50.946;14.610;2023-09-19T11:32:15;3.25;;;0.82;;
4198;SDS011;2113;50.946;14.610;2023-09-19T11:34:48;4.75;;;1.00;;
4198;SDS011;2113;50.946;14.610;2023-09-19T11:40:46;2.40;;;1.10;;
4198;SDS011;2113;50.946;14.610;2023-09-19T11:43:28;2.92;;;1.20;;
4198;SDS011;2113;50.946;14.610;2023-09-19T11:46:03;2.45;;;1.10;;
4198;SDS011;2113;50.946;14.610;2023-09-19T11:48:35;2.40;;;0.93;;
4198;SDS011;2113;50.946;14.610;2023-09-19T11:51:13;2.40;;;1.10;;
4198;SDS011;2113;50.946;14.610;2023-09-19T11:53:49;2.65;;;1.10;;
4198;SDS011;2113;50.946;14.610;2023-09-19T11:56:19;3.40;;;1.20;;
4198;SDS011;2113;50.946;14.610;2023-09-19T11:58:49;6.32;;;1.23;;
4198;SDS011;2113;50.946;14.610;2023-09-19T12:01:22;3.85;;;1.20;;
4198;SDS011;2113;50.946;14.610;2023-09-19T12:03:55;2.78;;;1.42;;
4198;SDS011;2113;50.946;14.610;2023-09-19T12:06:26;2.95;;;0.93;;
4198;SDS011;2113;50.946;14.610;2023-09-19T12:08:56;2.45;;;1.30;;
4198;SDS011;2113;50.946;14.610;2023-09-19T12:11:27;2.70;;;1.17;;
4198;SDS011;2113;50.946;14.610;2023-09-19T12:14:00;2.95;;;1.10;;
4198;SDS011;2113;50.946;14.610;2023-09-19T12:16:31;2.15;;;1.23;;
4198;SDS011;2113;50.946;14.610;2023-09-19T12:21:58;2.90;;;1.40;;
4198;SDS011;2113;50.946;14.610;2023-09-19T12:24:31;2.85;;;1.02;;
4198;SDS011;2113;50.946;14.610;2023-09-19T12:27:04;7.45;;;1.35;;
4198;SDS011;2113;50.946;14.610;2023-09-19T12:29:41;2.78;;;0.95;;
4198;SDS011;2113;50.946;14.610;2023-09-19T12:32:11;2.85;;;1.10;;
4198;SDS011;2113;50.946;14.610;2023-09-19T12:34:41;3.63;;;1.27;;
4198;SDS011;2113;50.946;14.610;2023-09-19T12:37:12;2.67;;;1.08;;
4198;SDS011;2113;50.946;14.610;2023-09-19T12:39:49;4.55;;;1.08;;
4198;SDS011;2113;50.946;14.610;2023-09-19T12:42:21;3.58;;;1.35;;
4198;SDS011;2113;50.946;14.610;2023-09-19T12:44:51;3.40;;;1.10;;
4198;SDS011;2113;50.946;14.610;2023-09-19T12:47:22;2.38;;;1.30;;
4198;SDS011;2113;50.946;14.610;2023-09-19T12:50:08;5.40;;;1.63;;
4198;SDS011;2113;50.946;14.610;2023-09-19T12:52:53;3.22;;;1.25;;
4198;SDS011;2113;50.946;14.610;2023-09-19T12:55:26;2.80;;;1.00;;
4198;SDS011;2113;50.946;14.610;2023-09-19T12:57:59;2.45;;;1.00;;
4198;SDS011;2113;50.946;14.610;2023-09-19T13:00:37;2.97;;;1.50;;
4198;SDS011;2113;50.946;14.610;2023-09-19T13:03:09;3.20;;;1.48;;
4198;SDS011;2113;50.946;14.610;2023-09-19T13:05:53;3.33;;;1.58;;
4198;SDS011;2113;50.946;14.610;2023-09-19T13:08:27;2.60;;;1.13;;
4198;SDS011;2113;50.946;14.610;2023-09-19T13:11:04;3.70;;;1.10;;
4198;SDS011;2113;50.946;14.610;2023-09-19T13:13:37;3.85;;;1.50;;
4198;SDS011;2113;50.946;14.610;2023-09-19T13:16:07;6.10;;;1.42;;
4198;SDS011;2113;50.946;14.610;2023-09-19T13:18:43;3.20;;;1.30;;
4198;SDS011;2113;50.946;14.610;2023-09-19T13:21:20;2.50;;;1.15;;
4198;SDS011;2113;50.946;14.610;2023-09-19T13:26:47;4.80;;;1.60;;
4198;SDS011;2113;50.946;14.610;2023-09-19T13:29:15;5.15;;;1.65;;
4198;SDS011;2113;50.946;14.610;2023-09-19T13:31:46;2.10;;;1.10;;
4198;SDS011;2113;50.946;14.610;2023-09-19T13:34:15;2.35;;;1.20;;
4198;SDS011;2113;50.946;14.610;2023-09-19T13:36:44;2.65;;;0.90;;
4198;SDS011;2113;50.946;14.610;2023-09-19T13:39:15;2.65;;;1.25;;
4198;SDS011;2113;50.946;14.610;2023-09-19T13:41:45;2.40;;;1.10;;
4198;SDS011;2113;50.946;14.610;2023-09-19T13:44:15;3.55;;;1.27;;
4198;SDS011;2113;50.946;14.610;2023-09-19T13:46:44;3.05;;;1.58;;
4198;SDS011;2113;50.946;14.610;2023-09-19T13:49:14;3.00;;;1.33;;
4198;SDS011;2113;50.946;14.610;2023-09-19T13:51:46;3.05;;;1.60;;
4198;SDS011;2113;50.946;14.610;2023-09-19T13:54:15;4.40;;;1.40;;
4198;SDS011;2113;50.946;14.610;2023-09-19T13:56:44;2.40;;;1.30;;
4198;SDS011;2113;50.946;14.610;2023-09-19T13:59:13;3.85;;;1.58;;
4198;SDS011;2113;50.946;14.610;2023-09-19T14:01:41;3.30;;;1.48;;
4198;SDS011;2113;50.946;14.610;2023-09-19T14:04:09;2.05;;;1.00;;
4198;SDS011;2113;50.946;14.610;2023-09-19T14:06:41;2.25;;;1.25;;
4198;SDS011;2113;50.946;14.610;2023-09-19T14:09:09;3.80;;;1.33;;
4198;SDS011;2113;50.946;14.610;2023-09-19T14:11:38;3.95;;;1.30;;
4198;SDS011;2113;50.946;14.610;2023-09-19T14:14:10;3.45;;;1.38;;
4198;SDS011;2113;50.946;14.610;2023-09-19T14:16:39;3.78;;;1.30;;
4198;SDS011;2113;50.946;14.610;2023-09-19T14:19:08;3.42;;;1.70;;
4198;SDS011;2113;50.946;14.610;2023-09-19T14:21:37;2.65;;;1.35;;
4198;SDS011;2113;50.946;14.610;2023-09-19T14:24:06;3.00;;;1.35;;
4198;SDS011;2113;50.946;14.610;2023-09-19T14:26:36;2.63;;;1.30;;
4198;SDS011;2113;50.946;14.610;2023-09-19T14:29:04;3.35;;;1.85;;
4198;SDS011;2113;50.946;14.610;2023-09-19T14:31:36;4.30;;;1.65;;
4198;SDS011;2113;50.946;14.610;2023-09-19T14:34:05;2.75;;;1.25;;
4198;SDS011;2113;50.946;14.610;2023-09-19T14:36:34;3.05;;;1.40;;
4198;SDS011;2113;50.946;14.610;2023-09-19T14:39:02;5.47;;;1.48;;
4198;SDS011;2113;50.946;14.610;2023-09-19T14:41:30;2.70;;;1.42;;
4198;SDS011;2113;50.946;14.610;2023-09-19T14:43:59;3.22;;;1.35;;
4198;SDS011;2113;50.946;14.610;2023-09-19T14:46:27;2.95;;;1.42;;
4198;SDS011;2113;50.946;14.610;2023-09-19T14:48:57;3.70;;;1.70;;
4198;SDS011;2113;50.946;14.610;2023-09-19T14:51:28;3.88;;;1.40;;
4198;SDS011;2113;50.946;14.610;2023-09-19T14:53:58;2.25;;;1.40;;
4198;SDS011;2113;50.946;14.610;2023-09-19T14:56:28;4.18;;;1.58;;
4198;SDS011;2113;50.946;14.610;2023-09-19T14:58:57;3.08;;;1.35;;
4198;SDS011;2113;50.946;14.610;2023-09-19T15:01:26;2.25;;;1.15;;
4198;SDS011;2113;50.946;14.610;2023-09-19T15:03:54;3.10;;;1.58;;
4198;SDS011;2113;50.946;14.610;2023-09-19T15:06:25;3.28;;;1.75;;
4198;SDS011;2113;50.946;14.610;2023-09-19T15:08:53;4.25;;;1.90;;
4198;SDS011;2113;50.946;14.610;2023-09-19T15:11:21;2.75;;;1.40;;
4198;SDS011;2113;50.946;14.610;2023-09-19T15:13:50;2.92;;;1.25;;
4198;SDS011;2113;50.946;14.610;2023-09-19T15:16:20;3.20;;;1.45;;
4198;SDS011;2113;50.946;14.610;2023-09-19T15:18:49;4.25;;;1.27;;
4198;SDS011;2113;50.946;14.610;2023-09-19T15:21:20;5.75;;;1.50;;
4198;SDS011;2113;50.946;14.610;2023-09-19T15:23:48;3.22;;;1.40;;
4198;SDS011;2113;50.946;14.610;2023-09-19T15:26:16;4.93;;;1.33;;
4198;SDS011;2113;50.946;14.610;2023-09-19T15:28:48;3.58;;;1.45;;
4198;SDS011;2113;50.946;14.610;2023-09-19T15:31:17;3.15;;;1.40;;
4198;SDS011;2113;50.946;14.610;2023-09-19T15:33:45;2.88;;;1.40;;
4198;SDS011;2113;50.946;14.610;2023-09-19T15:36:14;6.07;;;2.58;;
4198;SDS011;2113;50.946;14.610;2023-09-19T15:38:57;3.67;;;1.60;;
4198;SDS011;2113;50.946;14.610;2023-09-19T15:41:27;4.78;;;1.95;;
4198;SDS011;2113;50.946;14.610;2023-09-19T15:43:57;2.80;;;1.40;;